createdAt,value
2018-04-17T00:01:38.772Z,42.80
2018-04-17T00:04:42.570Z,42.70
2018-04-17T00:07:46.388Z,42.90
2018-04-17T00:10:50.194Z,42.70
2018-04-17T00:13:54.716Z,42.80
2018-04-17T00:16:58.513Z,42.70
2018-04-17T00:20:02.404Z,42.80
2018-04-17T00:23:06.230Z,42.70
2018-04-17T00:26:10.356Z,42.70
2018-04-17T00:29:14.133Z,42.80
2018-04-17T00:32:18.012Z,42.80
2018-04-17T00:35:23.290Z,42.90
2018-04-17T00:38:27.181Z,42.90
2018-04-17T00:41:31.821Z,42.90
2018-04-17T00:44:36.350Z,42.90
2018-04-17T00:47:40.196Z,42.80
2018-04-17T00:50:44.709Z,42.90
2018-04-17T00:53:55.234Z,42.80
2018-04-17T00:56:59.037Z,42.80
2018-04-17T01:00:03.769Z,42.80
2018-04-17T01:03:08.321Z,42.80
2018-04-17T01:06:12.858Z,42.80
2018-04-17T01:09:17.372Z,42.80
2018-04-17T01:12:21.244Z,42.70
2018-04-17T01:15:25.029Z,42.80
2018-04-17T01:18:28.865Z,42.80
2018-04-17T01:21:33.416Z,42.30
2018-04-17T01:24:37.935Z,42.80
2018-04-17T01:27:41.733Z,42.70
2018-04-17T01:30:45.521Z,42.80
2018-04-17T01:33:49.343Z,42.80
2018-04-17T01:36:53.142Z,42.70
2018-04-17T01:39:57.069Z,42.90
2018-04-17T01:43:01.851Z,42.80
2018-04-17T01:46:05.629Z,42.70
2018-04-17T01:49:09.432Z,42.80
2018-04-17T01:52:13.316Z,42.70
2018-04-17T01:55:17.140Z,42.80
2018-04-17T01:58:20.937Z,42.80
2018-04-17T02:01:24.751Z,42.80
2018-04-17T02:04:28.527Z,42.80
2018-04-17T02:07:32.339Z,42.80
2018-04-17T02:10:36.125Z,42.80
2018-04-17T02:13:39.925Z,42.80
2018-04-17T02:16:43.716Z,42.90
2018-04-17T02:19:47.532Z,42.90
2018-04-17T02:22:51.333Z,42.90
2018-04-17T02:25:55.897Z,42.90
2018-04-17T02:28:59.748Z,42.80
2018-04-17T02:32:03.702Z,42.90
2018-04-17T02:35:07.511Z,42.90
2018-04-17T02:38:11.318Z,42.90
2018-04-17T02:41:15.114Z,42.80
2018-04-17T02:44:19.663Z,42.90
2018-04-17T02:47:23.481Z,42.80
2018-04-17T02:50:27.317Z,42.80
2018-04-17T02:53:31.149Z,42.80
2018-04-17T02:56:35.104Z,42.80
2018-04-17T02:59:38.912Z,42.80
2018-04-17T03:02:42.718Z,42.80
2018-04-17T03:05:46.492Z,42.80
2018-04-17T03:08:50.295Z,42.80
2018-04-17T03:11:54.078Z,42.70
2018-04-17T03:14:58.618Z,42.70
2018-04-17T03:18:02.431Z,42.70
2018-04-17T03:21:06.969Z,42.80
2018-04-17T03:24:11.521Z,42.80
2018-04-17T03:27:15.458Z,42.80
2018-04-17T03:30:19.233Z,42.80
2018-04-17T03:33:23.037Z,42.80
2018-04-17T03:36:26.822Z,42.80
2018-04-17T03:39:30.644Z,42.80
2018-04-17T03:42:34.856Z,42.80
2018-04-17T03:45:39.387Z,42.90
2018-04-17T03:48:43.183Z,43.40
2018-04-17T03:51:46.963Z,42.80
2018-04-17T03:54:51.500Z,42.90
2018-04-17T03:57:56.044Z,42.90
2018-04-17T04:00:59.884Z,42.80
2018-04-17T04:04:03.721Z,42.90
2018-04-17T04:07:07.588Z,42.80
2018-04-17T04:10:11.450Z,42.90
2018-04-17T04:13:15.986Z,42.90
2018-04-17T04:16:38.284Z,42.80
2018-04-17T04:19:59.970Z,42.80
2018-04-17T04:23:21.532Z,42.80
2018-04-17T04:26:34.492Z,42.80
2018-04-17T04:29:38.293Z,42.80
2018-04-17T04:32:42.804Z,42.90
2018-04-17T04:35:46.669Z,42.80
2018-04-17T04:38:50.499Z,42.80
2018-04-17T04:41:54.314Z,42.80
2018-04-17T04:44:58.170Z,42.70
2018-04-17T04:48:01.974Z,42.80
2018-04-17T04:51:05.856Z,42.80
2018-04-17T04:54:09.666Z,42.80
2018-04-17T04:57:13.436Z,42.80
2018-04-17T05:00:17.977Z,42.80
2018-04-17T05:03:21.794Z,42.80
2018-04-17T05:06:26.345Z,42.80
2018-04-17T05:09:30.165Z,42.80
2018-04-17T05:12:34.065Z,42.90
2018-04-17T05:15:38.018Z,42.80
2018-04-17T05:18:42.576Z,42.90
2018-04-17T05:21:46.356Z,42.80
2018-04-17T05:24:50.172Z,42.90
2018-04-17T05:27:53.947Z,42.90
2018-04-17T05:30:57.750Z,42.90
2018-04-17T05:34:02.585Z,42.90
2018-04-17T05:37:06.519Z,42.80
2018-04-17T05:40:11.098Z,42.90
2018-04-17T05:43:14.867Z,42.80
2018-04-17T05:46:18.680Z,43.00
2018-04-17T05:49:22.470Z,42.90
2018-04-17T05:52:26.267Z,42.90
2018-04-17T05:55:30.839Z,42.90
2018-04-17T05:58:34.744Z,42.80
2018-04-17T06:01:38.658Z,42.80
2018-04-17T06:04:42.521Z,42.90
2018-04-17T06:07:46.313Z,42.90
2018-04-17T06:10:50.121Z,42.90
2018-04-17T06:13:54.639Z,42.90
2018-04-17T06:16:58.504Z,42.80
2018-04-17T06:20:02.335Z,42.80
2018-04-17T06:23:06.149Z,42.80
2018-04-17T06:26:10.072Z,42.90
2018-04-17T06:29:14.615Z,42.90
2018-04-17T06:32:19.159Z,42.90
2018-04-17T06:35:22.985Z,42.90
2018-04-17T06:38:27.528Z,43.00
2018-04-17T06:41:32.226Z,43.00
2018-04-17T06:44:36.094Z,42.90
2018-04-17T06:47:39.980Z,43.00
2018-04-17T06:50:43.732Z,43.00
2018-04-17T06:53:48.309Z,43.10
2018-04-17T06:56:52.218Z,43.00
2018-04-17T06:59:56.028Z,43.10
2018-04-17T07:03:00.671Z,43.00
2018-04-17T07:06:05.445Z,43.10
2018-04-17T07:09:09.391Z,42.90
2018-04-17T07:12:13.205Z,43.00
2018-04-17T07:15:17.000Z,43.10
2018-04-17T07:18:21.511Z,43.10
2018-04-17T07:21:25.313Z,43.00
2018-04-17T07:24:29.099Z,43.00
2018-04-17T07:27:33.010Z,43.10
2018-04-17T07:30:37.098Z,43.10
2018-04-17T07:33:40.983Z,43.00
2018-04-17T07:36:44.780Z,43.00
2018-04-17T07:39:49.337Z,43.10
2018-04-17T07:42:53.878Z,43.10
2018-04-17T07:45:58.434Z,43.10
2018-04-17T07:49:08.740Z,43.00
2018-04-17T07:52:12.538Z,43.00
2018-04-17T07:55:16.345Z,43.10
2018-04-17T07:58:20.170Z,43.10
2018-04-17T08:01:23.981Z,43.10
2018-04-17T08:04:28.532Z,43.10
2018-04-17T08:07:33.116Z,43.10
2018-04-17T08:10:37.105Z,43.10
2018-04-17T08:13:41.631Z,43.10
2018-04-17T08:16:46.188Z,43.30
2018-04-17T08:19:50.733Z,43.20
2018-04-17T08:22:54.539Z,43.10
2018-04-17T08:25:59.126Z,43.20
2018-04-17T08:29:03.089Z,43.20
2018-04-17T08:32:06.992Z,43.20
2018-04-17T08:35:11.431Z,43.20
2018-04-17T08:38:15.317Z,43.20
2018-04-17T08:41:19.135Z,43.20
2018-04-17T08:44:23.672Z,43.30
2018-04-17T08:47:28.321Z,43.30
2018-04-17T08:50:32.875Z,43.30
2018-04-17T08:53:36.701Z,43.20
2018-04-17T08:56:40.509Z,43.30
2018-04-17T08:59:45.064Z,43.40
2018-04-17T09:02:48.885Z,43.30
2018-04-17T09:05:52.681Z,43.30
2018-04-17T09:08:57.201Z,43.30
2018-04-17T09:12:01.130Z,43.20
2018-04-17T09:15:04.911Z,43.20
2018-04-17T09:18:08.916Z,43.30
2018-04-17T09:21:13.470Z,43.40
2018-04-17T09:24:17.252Z,43.30
2018-04-17T09:27:21.057Z,43.40
2018-04-17T09:30:24.946Z,43.30
2018-04-17T09:33:28.763Z,43.40
2018-04-17T09:36:32.743Z,43.30
2018-04-17T09:39:36.530Z,43.30
2018-04-17T09:42:40.330Z,43.30
2018-04-17T09:45:44.848Z,43.40
2018-04-17T09:48:48.731Z,43.30
2018-04-17T09:51:52.594Z,43.30
2018-04-17T09:54:56.389Z,43.30
2018-04-17T09:58:00.200Z,43.30
2018-04-17T10:01:04.021Z,43.30
2018-04-17T10:04:07.915Z,43.40
2018-04-17T10:07:12.588Z,43.40
2018-04-17T10:10:16.365Z,43.30
2018-04-17T10:13:20.170Z,43.40
2018-04-17T10:16:23.970Z,43.30
2018-04-17T10:19:27.770Z,43.30
2018-04-17T10:22:31.629Z,43.20
2018-04-17T10:25:35.464Z,43.10
2018-04-17T10:28:39.408Z,43.20
2018-04-17T10:31:43.235Z,43.10
2018-04-17T10:34:47.013Z,43.10
2018-04-17T10:37:50.825Z,43.00
2018-04-17T10:40:54.633Z,42.90
2018-04-17T10:43:58.444Z,43.00
2018-04-17T10:47:03.184Z,43.00
2018-04-17T10:50:07.743Z,42.90
2018-04-17T10:53:12.421Z,42.80
2018-04-17T10:56:16.199Z,42.80
2018-04-17T10:59:20.005Z,42.70
2018-04-17T11:02:23.808Z,43.30
2018-04-17T11:05:27.587Z,42.70
2018-04-17T11:08:32.322Z,42.70
2018-04-17T11:11:37.069Z,42.70
2018-04-17T11:14:40.872Z,42.70
2018-04-17T11:17:44.733Z,42.70
2018-04-17T11:20:48.569Z,42.80
2018-04-17T11:23:52.385Z,42.90
2018-04-17T11:26:56.186Z,42.90
2018-04-17T11:30:00.131Z,42.80
2018-04-17T11:33:04.144Z,43.00
2018-04-17T11:36:07.930Z,42.90
2018-04-17T11:39:11.754Z,43.10
2018-04-17T11:42:15.568Z,43.00
2018-04-17T11:45:19.353Z,43.10
2018-04-17T11:48:23.901Z,43.10
2018-04-17T11:51:27.734Z,43.10
2018-04-17T11:54:31.716Z,43.10
2018-04-17T11:57:35.546Z,43.20
2018-04-17T12:00:40.167Z,43.20
2018-04-17T12:03:44.046Z,43.10
2018-04-17T12:06:48.572Z,43.40
2018-04-17T12:09:53.112Z,43.30
2018-04-17T12:12:56.913Z,43.20
2018-04-17T12:16:00.779Z,43.30
2018-04-17T12:19:05.326Z,43.40
2018-04-17T12:22:09.184Z,43.30
2018-04-17T12:25:13.069Z,43.40
2018-04-17T12:28:17.714Z,43.40
2018-04-17T12:31:21.502Z,43.40
2018-04-17T12:34:25.309Z,43.50
2018-04-17T12:37:29.107Z,43.40
2018-04-17T12:40:32.911Z,43.40
2018-04-17T12:43:36.899Z,43.40
2018-04-17T12:46:40.769Z,43.40
2018-04-17T12:49:44.687Z,43.40
2018-04-17T12:52:48.497Z,43.30
2018-04-17T12:55:53.026Z,43.30
2018-04-17T12:58:56.825Z,43.20
2018-04-17T13:02:00.664Z,43.20
2018-04-17T13:05:04.706Z,43.40
2018-04-17T13:08:08.534Z,43.20
2018-04-17T13:11:12.380Z,43.20
2018-04-17T13:14:16.923Z,43.10
2018-04-17T13:17:20.737Z,43.10
2018-04-17T13:20:25.286Z,43.10
2018-04-17T13:23:29.099Z,43.10
2018-04-17T13:26:33.675Z,43.20
2018-04-17T13:29:37.463Z,43.10
2018-04-17T13:32:41.286Z,43.10
2018-04-17T13:35:45.842Z,43.10
2018-04-17T13:38:50.400Z,43.00
2018-04-17T13:41:54.214Z,43.00
2018-04-17T13:44:58.045Z,43.00
2018-04-17T13:48:01.858Z,43.00
2018-04-17T13:51:06.380Z,43.00
2018-04-17T13:54:10.979Z,43.10
2018-04-17T13:57:14.822Z,43.00
2018-04-17T14:00:18.800Z,43.10
2018-04-17T14:03:22.634Z,43.00
2018-04-17T14:06:26.446Z,43.00
2018-04-17T14:09:30.579Z,43.10
2018-04-17T14:12:34.476Z,43.00
2018-04-17T14:15:38.305Z,43.00
2018-04-17T14:18:42.110Z,43.10
2018-04-17T14:21:45.883Z,43.60
2018-04-17T14:24:49.698Z,43.00
2018-04-17T14:27:54.246Z,43.10
2018-04-17T14:30:58.050Z,43.10
2018-04-17T14:34:02.702Z,43.10
2018-04-17T14:37:06.525Z,43.10
2018-04-17T14:40:11.068Z,43.10
2018-04-17T14:43:15.588Z,43.00
2018-04-17T14:46:19.402Z,42.90
2018-04-17T14:49:23.210Z,43.00
2018-04-17T14:52:26.996Z,42.90
2018-04-17T14:55:30.834Z,43.00
2018-04-17T14:58:34.650Z,43.00
2018-04-17T15:01:38.433Z,43.00
2018-04-17T15:04:42.236Z,43.00
2018-04-17T15:07:46.018Z,42.90
2018-04-17T15:10:49.828Z,43.00
2018-04-17T15:13:54.380Z,42.90
2018-04-17T15:16:59.747Z,43.10
2018-04-17T15:20:03.901Z,43.10
2018-04-17T15:23:07.716Z,43.00
2018-04-17T15:26:11.552Z,43.00
2018-04-17T15:29:15.355Z,43.10
2018-04-17T15:32:19.136Z,43.20
2018-04-17T15:35:22.987Z,43.10
2018-04-17T15:38:26.815Z,43.40
2018-04-17T15:41:30.912Z,43.20
2018-04-17T15:44:34.744Z,43.20
2018-04-17T15:47:38.583Z,43.20
2018-04-17T15:50:43.124Z,43.20
2018-04-17T15:53:46.926Z,43.10
2018-04-17T15:56:50.720Z,43.20
2018-04-17T15:59:54.528Z,43.30
2018-04-17T16:02:58.333Z,43.30
2018-04-17T16:06:02.483Z,43.40
2018-04-17T16:09:06.967Z,43.40
2018-04-17T16:12:10.828Z,43.30
2018-04-17T16:15:14.628Z,43.30
2018-04-17T16:18:19.193Z,43.60
2018-04-17T16:21:23.007Z,43.30
2018-04-17T16:24:27.562Z,43.30
2018-04-17T16:27:31.393Z,43.30
2018-04-17T16:30:35.243Z,43.30
2018-04-17T16:33:39.056Z,43.30
2018-04-17T16:36:42.869Z,43.10
2018-04-17T16:39:46.681Z,43.20
2018-04-17T16:42:50.507Z,43.10
2018-04-17T16:45:54.329Z,43.10
2018-04-17T16:48:58.847Z,43.20
2018-04-17T16:52:03.472Z,43.20
2018-04-17T16:55:07.319Z,43.10
2018-04-17T16:58:11.856Z,43.20
2018-04-17T17:01:16.401Z,44.00
2018-04-17T17:04:20.922Z,43.30
2018-04-17T17:07:24.720Z,43.10
2018-04-17T17:10:28.546Z,43.10
2018-04-17T17:13:32.380Z,43.40
2018-04-17T17:16:36.260Z,43.40
2018-04-17T17:19:40.087Z,43.30
2018-04-17T17:22:43.904Z,43.40
2018-04-17T17:25:47.715Z,43.30
2018-04-17T17:28:52.248Z,43.40
2018-04-17T17:31:56.092Z,43.40
2018-04-17T17:35:00.703Z,43.40
2018-04-17T17:38:04.513Z,43.30
2018-04-17T17:41:08.400Z,43.40
2018-04-17T17:44:12.238Z,43.40
2018-04-17T17:47:16.753Z,43.40
2018-04-17T17:50:21.285Z,43.40
2018-04-17T17:53:25.803Z,43.40
2018-04-17T17:56:29.669Z,43.30
2018-04-17T17:59:33.474Z,43.40
2018-04-17T18:02:38.041Z,43.40
2018-04-17T18:05:41.885Z,43.40
2018-04-17T18:08:45.670Z,43.40
2018-04-17T18:11:49.726Z,43.40
2018-04-17T18:14:53.609Z,43.40
2018-04-17T18:17:58.303Z,43.40
2018-04-17T18:21:02.123Z,43.40
2018-04-17T18:24:06.016Z,43.40
2018-04-17T18:27:10.573Z,43.50
2018-04-17T18:30:14.350Z,43.40
2018-04-17T18:33:18.147Z,43.40
2018-04-17T18:36:22.232Z,43.40
2018-04-17T18:39:26.762Z,43.40
2018-04-17T18:42:30.656Z,43.40
2018-04-17T18:45:34.598Z,43.40
2018-04-17T18:48:38.465Z,43.40
2018-04-17T18:51:43.108Z,43.40
2018-04-17T18:54:46.891Z,43.40
2018-04-17T18:57:51.039Z,43.40
2018-04-17T19:00:54.939Z,43.40
2018-04-17T19:03:58.910Z,43.40
2018-04-17T19:07:02.723Z,43.40
2018-04-17T19:10:07.327Z,43.50
2018-04-17T19:13:11.942Z,43.40
2018-04-17T19:16:15.768Z,43.40
2018-04-17T19:19:19.549Z,43.40
2018-04-17T19:22:23.374Z,43.40
2018-04-17T19:25:27.223Z,43.90
2018-04-17T19:28:31.037Z,43.40
2018-04-17T19:31:35.624Z,43.40
2018-04-17T19:34:39.480Z,43.40
2018-04-17T19:37:43.337Z,43.40
2018-04-17T19:40:47.269Z,43.40
2018-04-17T19:43:51.067Z,43.40
2018-04-17T19:46:54.859Z,43.40
2018-04-17T19:49:58.641Z,43.40
2018-04-17T19:53:02.559Z,43.40
2018-04-17T19:56:06.402Z,43.40
2018-04-17T19:59:10.182Z,43.40
2018-04-17T20:02:14.034Z,43.40
2018-04-17T20:05:18.554Z,43.40
2018-04-17T20:08:22.404Z,43.30
2018-04-17T20:11:26.211Z,44.10
2018-04-17T20:14:30.794Z,43.40
2018-04-17T20:17:34.797Z,43.30
2018-04-17T20:20:38.652Z,43.40
2018-04-17T20:23:42.564Z,43.40
2018-04-17T20:26:46.369Z,44.00
2018-04-17T20:29:50.885Z,43.40
2018-04-17T20:32:54.681Z,43.40
2018-04-17T20:35:58.468Z,43.40
2018-04-17T20:39:02.863Z,43.40
2018-04-17T20:42:06.688Z,43.40
2018-04-17T20:45:10.467Z,43.40
2018-04-17T20:48:14.269Z,43.40
2018-04-17T20:51:18.798Z,43.40
2018-04-17T20:54:22.801Z,43.30
2018-04-17T20:57:26.614Z,43.40
2018-04-17T21:00:30.418Z,43.40
2018-04-17T21:03:34.256Z,43.40
2018-04-17T21:06:38.202Z,43.40
2018-04-17T21:09:42.002Z,43.40
2018-04-17T21:12:45.855Z,43.40
2018-04-17T21:15:49.662Z,43.40
2018-04-17T21:18:53.496Z,43.40
2018-04-17T21:21:57.304Z,43.90
2018-04-17T21:25:01.119Z,43.30
2018-04-17T21:28:04.967Z,43.40
2018-04-17T21:31:08.756Z,43.40
2018-04-17T21:34:12.569Z,43.40
2018-04-17T21:37:16.376Z,43.40
2018-04-17T21:40:20.915Z,43.40
2018-04-17T21:43:25.456Z,43.40
2018-04-17T21:46:30.079Z,43.40
2018-04-17T21:49:33.988Z,43.30
2018-04-17T21:52:37.883Z,43.40
2018-04-17T21:55:41.688Z,43.40
2018-04-17T21:58:45.486Z,43.40
2018-04-17T22:01:49.274Z,43.40
2018-04-17T22:04:53.094Z,43.40
2018-04-17T22:07:56.977Z,43.40
2018-04-17T22:11:02.172Z,43.40
2018-04-17T22:14:06.025Z,43.40
2018-04-17T22:17:09.814Z,43.40
2018-04-17T22:20:13.614Z,43.40
2018-04-17T22:23:17.441Z,43.40
2018-04-17T22:26:21.236Z,43.30
2018-04-17T22:29:25.034Z,43.30
2018-04-17T22:32:28.884Z,43.30
2018-04-17T22:35:33.849Z,43.70
2018-04-17T22:38:37.700Z,43.40
2018-04-17T22:41:41.480Z,43.40
2018-04-17T22:44:45.284Z,43.40
2018-04-17T22:47:49.092Z,43.30
2018-04-17T22:50:52.884Z,43.40
2018-04-17T22:53:56.696Z,43.40
2018-04-17T22:57:01.237Z,43.40
2018-04-17T23:00:05.791Z,43.30
2018-04-17T23:03:09.597Z,43.20
2018-04-17T23:06:14.119Z,43.30
2018-04-17T23:09:17.933Z,43.30
2018-04-17T23:12:21.714Z,43.40
2018-04-17T23:15:25.510Z,43.30
2018-04-17T23:18:30.053Z,43.30
2018-04-17T23:21:33.867Z,43.20
2018-04-17T23:24:38.424Z,43.40
2018-04-17T23:27:42.220Z,43.30
2018-04-17T23:30:46.027Z,43.40
2018-04-17T23:33:49.830Z,43.40
2018-04-17T23:36:53.598Z,43.30
2018-04-17T23:39:57.413Z,43.30
2018-04-17T23:43:01.961Z,43.30
2018-04-17T23:46:05.769Z,43.30
2018-04-17T23:49:09.575Z,43.30
2018-04-17T23:52:13.359Z,43.20
2018-04-17T23:55:17.162Z,43.40
2018-04-17T23:58:21.001Z,43.30
